METAR AND TAF INFORMATION
METAR FOR FAMM
ADDS - METARS form results

(0705 UTC 27 May 2019)
Data provider http://aviationweather.gov/metar/data/
 
METAR text: FAMM 270700Z 05004KT CAVOK 14/06 Q1026 NOSIG
Conditions at: FAMM (MMABATHO INTL AR, ZA) observed 0700 UTC 27 May 2019
Temperature: 14.0°C (57°F)
Dewpoint: 6.0°C (43°F) [RH = 58%]
Pressure (altimeter): 30.30 inches Hg (1026.0 mb)
Winds: from the NE (50 degrees) at 5 MPH (4 knots; 2.1 m/s)
Visibility: 6 or more miles (10+ km)
Ceiling: ceiling and visibility are OK
Clouds: unknown
Weather: no significant weather observed at this time

METAR text: FAMM 270624Z 06001KT CAVOK 13/06 Q1026 NOSIG
Conditions at: FAMM (MMABATHO INTL AR, ZA) observed 0624 UTC 27 May 2019
Temperature: 13.0°C (55°F)
Dewpoint: 6.0°C (43°F) [RH = 62%]
Pressure (altimeter): 30.30 inches Hg (1026.0 mb)
Winds: from the ENE (60 degrees) at 1 MPH (1 knots; 0.5 m/s)
Visibility: 6 or more miles (10+ km)
Ceiling: ceiling and visibility are OK
Clouds: unknown
Weather: no significant weather observed at this time

Forecast for: FAMM (MMABATHO INTL AR, ZA)
Text: TAF FAMM 270300Z 2704/2715 05006KT CAVOK TX19/2712Z TN06/2705Z
Forecast period: 0400 to 1500 UTC 27 May 2019
Forecast type: FROM: standard forecast or significant change
Winds: from the NE (50 degrees) at 7 MPH (6 knots; 3.1 m/s)
Visibility: 6 or more miles 10+ km)
Ceiling: unknown
Clouds: missing
Weather: no significant weather forecast for this period

 AIRPORT MAP

 RUNWAY INFORMATION
Runway 04 Runway length 15157 ft Runway width 148 ft
Runway elevation 4172 ft Runway displaced threshold 197 ft Runway heading 23
Runway 22 Runway length 15157 ft Runway width 148 ft
Runway elevation 4148 ft Runway displaced threshold 197 ft Runway heading 203

 AIRPORT FREQUENCIES
Type APP Name APP Frequency 119.3 MHZ
Type TWR Name TWR Frequency 119.3 MHZ

 AIRPORT NEAR NAVIGATION AIDS
Type NDB Name Mafikeng Frequency 305 KHZ
Type VOR-DME Name Mafikeng Frequency 112900 KHZ



The South Africal Virtual Air Force